Time;durP1;ratioP1;P1;durP2;ratioP2;P2;SDS_P1;SDS_P2;PMS_P1;PMS_P2;Temp;Humidity;BMP_temperature;BMP_pressure;BME280_temperature;BME280_humidity;BME280_pressure;Samples;Min_cycle;Max_cycle;Signal;HPM_P1;HPM_P2
2023/12/10 00:01:54;;;;;;;19.85;3.17;;;9.40;99.90;;;;;;5069262;28;20052;-66
2023/12/10 00:04:21;;;;;;;24.83;3.95;;;9.40;99.90;;;;;;5069624;28;20454;-66
2023/12/10 00:06:52;;;;;;;15.52;2.95;;;9.30;99.90;;;;;;5069478;28;20060;-65
2023/12/10 00:09:19;;;;;;;20.35;4.57;;;9.40;99.90;;;;;;5070962;28;20403;-65
2023/12/10 00:11:46;;;;;;;28.77;5.18;;;9.40;99.90;;;;;;5052796;28;20056;-66
2023/12/10 00:14:13;;;;;;;21.38;5.80;;;9.40;99.90;;;;;;5068933;28;20102;-65
2023/12/10 00:16:40;;;;;;;16.25;4.32;;;9.40;99.90;;;;;;5066644;28;20052;-65
2023/12/10 00:19:07;;;;;;;18.20;3.28;;;9.40;99.90;;;;;;5070135;28;20044;-65
2023/12/10 00:21:34;;;;;;;16.90;4.07;;;9.40;99.90;;;;;;5070146;28;20037;-65
2023/12/10 00:24:01;;;;;;;13.95;3.22;;;9.40;99.90;;;;;;5070964;28;20048;-65
2023/12/10 00:26:28;;;;;;;32.30;3.75;;;9.30;99.90;;;;;;5070797;28;20056;-65
2023/12/10 00:28:55;;;;;;;20.95;3.78;;;9.40;99.90;;;;;;5071686;28;20040;-65
2023/12/10 00:31:22;;;;;;;20.55;3.47;;;9.30;99.90;;;;;;5051482;28;20556;-65
2023/12/10 00:33:49;;;;;;;19.95;3.58;;;9.30;99.90;;;;;;5067099;28;20052;-65
2023/12/10 00:36:16;;;;;;;25.10;3.58;;;9.30;99.90;;;;;;5068737;28;20067;-65
2023/12/10 00:38:43;;;;;;;24.75;4.47;;;9.30;99.90;;;;;;5068754;28;20048;-65
2023/12/10 00:41:10;;;;;;;20.55;4.00;;;9.20;99.90;;;;;;5069929;28;20110;-65
2023/12/10 00:43:41;;;;;;;27.23;5.13;;;9.20;99.90;;;;;;5068604;28;20132;-65
2023/12/10 00:46:08;;;;;;;16.35;3.72;;;9.20;99.90;;;;;;5069370;28;20484;-65
2023/12/10 00:48:36;;;;;;;21.05;2.97;;;9.20;99.90;;;;;;5065937;28;20048;-65
2023/12/10 00:51:03;;;;;;;14.45;2.80;;;9.20;99.90;;;;;;5084344;28;20056;-65
2023/12/10 00:53:30;;;;;;;23.73;3.83;;;9.20;99.90;;;;;;5051322;28;20465;-64
2023/12/10 00:55:57;;;;;;;16.35;3.53;;;9.10;99.90;;;;;;5051580;28;20419;-65
2023/12/10 00:58:24;;;;;;;18.40;3.70;;;9.10;99.90;;;;;;5068491;28;20540;-65
2023/12/10 01:00:51;;;;;;;27.15;4.15;;;9.10;99.90;;;;;;5068930;28;20552;-65
2023/12/10 01:03:18;;;;;;;14.48;3.20;;;9.10;99.90;;;;;;5068010;28;20059;-65
2023/12/10 01:05:45;;;;;;;17.77;3.10;;;9.10;99.90;;;;;;5078182;28;20064;-68
2023/12/10 01:08:12;;;;;;;18.48;3.70;;;9.10;99.90;;;;;;5067645;28;20079;-65
2023/12/10 01:10:39;;;;;;;26.48;3.55;;;9.10;99.90;;;;;;5069284;28;20480;-65
2023/12/10 01:13:06;;;;;;;24.92;4.93;;;9.10;99.90;;;;;;5067342;28;20053;-65
2023/12/10 01:15:32;;;;;;;29.35;3.38;;;9.10;99.90;;;;;;5068903;28;20052;-65
2023/12/10 01:18:00;;;;;;;31.20;9.00;;;9.10;99.90;;;;;;5084848;28;20048;-65
2023/12/10 01:20:37;;;;;;;18.65;2.90;;;9.10;99.90;;;;;;5069645;28;20052;-65
2023/12/10 01:23:04;;;;;;;17.58;3.08;;;9.10;99.90;;;;;;5071181;28;20384;-65
2023/12/10 01:25:31;;;;;;;18.60;3.20;;;9.00;99.90;;;;;;5070980;28;20041;-65
2023/12/10 01:27:58;;;;;;;26.73;4.85;;;9.00;99.90;;;;;;5070722;28;20098;-65
2023/12/10 01:30:25;;;;;;;21.63;4.43;;;9.00;99.90;;;;;;5070679;28;20040;-65
2023/12/10 01:32:53;;;;;;;21.58;3.58;;;9.00;99.90;;;;;;5069713;28;20336;-65
2023/12/10 01:35:20;;;;;;;34.00;3.30;;;9.00;99.90;;;;;;5069365;28;20105;-65
2023/12/10 01:37:48;;;;;;;25.80;4.25;;;9.00;99.90;;;;;;5068891;28;20538;-65
2023/12/10 01:40:15;;;;;;;20.88;3.08;;;9.00;99.90;;;;;;5068951;28;20041;-65
2023/12/10 01:42:42;;;;;;;14.05;3.45;;;9.00;99.90;;;;;;5069874;28;20468;-65
2023/12/10 01:45:09;;;;;;;16.88;3.53;;;9.00;99.90;;;;;;4716792;28;10000601;-66
2023/12/10 01:47:38;;;;;;;21.55;3.95;;;9.00;99.90;;;;;;5066829;28;20044;-65
2023/12/10 01:50:06;;;;;;;27.50;3.58;;;9.00;99.90;;;;;;5069325;28;20483;-66
2023/12/10 01:52:34;;;;;;;16.75;3.30;;;9.00;99.90;;;;;;5051639;28;20049;-65
2023/12/10 01:55:02;;;;;;;18.35;3.28;;;9.00;99.90;;;;;;5049022;28;20040;-64
2023/12/10 01:57:30;;;;;;;16.08;3.85;;;9.00;99.90;;;;;;5085071;28;20091;-65
2023/12/10 01:59:58;;;;;;;23.33;3.20;;;9.00;99.90;;;;;;5085401;28;20143;-65
2023/12/10 02:02:25;;;;;;;19.33;3.22;;;9.00;99.90;;;;;;5081746;28;20495;-66
2023/12/10 02:04:54;;;;;;;18.38;3.75;;;9.00;99.90;;;;;;5080486;28;20048;-65
2023/12/10 02:07:24;;;;;;;23.00;4.50;;;9.00;99.90;;;;;;5051708;28;20044;-65
2023/12/10 02:09:51;;;;;;;30.30;3.72;;;9.00;99.90;;;;;;5084244;28;20099;-65
2023/12/10 02:12:18;;;;;;;14.48;2.80;;;8.90;99.90;;;;;;5063573;28;20063;-65
2023/12/10 02:14:45;;;;;;;24.83;4.30;;;8.90;99.90;;;;;;5068259;28;20044;-65
2023/12/10 02:17:12;;;;;;;35.95;4.60;;;9.00;99.90;;;;;;5068221;28;20067;-65
2023/12/10 02:19:39;;;;;;;19.50;3.15;;;9.00;99.90;;;;;;5082787;28;20056;-65
2023/12/10 02:22:13;;;;;;;18.98;3.13;;;8.90;99.90;;;;;;5068102;28;20044;-65
2023/12/10 02:24:44;;;;;;;21.00;4.68;;;9.00;99.90;;;;;;5051769;28;20041;-65
2023/12/10 02:27:11;;;;;;;19.88;4.00;;;8.90;99.90;;;;;;5064281;28;20056;-65
2023/12/10 02:29:38;;;;;;;20.55;3.55;;;8.90;99.90;;;;;;5075800;28;20040;-65
2023/12/10 02:32:05;;;;;;;18.20;2.67;;;9.00;99.90;;;;;;5050291;28;20083;-65
2023/12/10 02:34:32;;;;;;;18.80;3.20;;;8.90;99.90;;;;;;5067745;28;20049;-64
2023/12/10 02:36:59;;;;;;;26.30;3.80;;;8.90;99.90;;;;;;5068062;28;20044;-66
2023/12/10 02:39:26;;;;;;;19.42;2.88;;;8.90;99.90;;;;;;5049720;28;20040;-66
2023/12/10 02:41:53;;;;;;;28.73;3.63;;;8.90;99.90;;;;;;5068016;28;20478;-65
2023/12/10 02:44:20;;;;;;;27.98;4.03;;;8.90;99.90;;;;;;5068416;28;20510;-65
2023/12/10 02:46:50;;;;;;;18.83;3.22;;;8.90;99.90;;;;;;5068358;28;20056;-64
2023/12/10 02:49:17;;;;;;;20.45;3.78;;;8.80;99.90;;;;;;5067422;28;20095;-64
2023/12/10 02:51:44;;;;;;;26.50;3.70;;;8.80;99.90;;;;;;5068665;28;20044;-63
2023/12/10 02:54:11;;;;;;;22.35;2.85;;;8.70;99.90;;;;;;5066187;28;20036;-65
2023/12/10 02:56:38;;;;;;;22.67;3.47;;;8.70;99.90;;;;;;5067769;28;20088;-65
2023/12/10 02:59:05;;;;;;;24.63;3.50;;;8.70;99.90;;;;;;5067273;28;20041;-64
2023/12/10 03:01:31;;;;;;;20.45;3.13;;;8.70;99.90;;;;;;5082335;28;20490;-64
2023/12/10 03:03:58;;;;;;;31.25;3.70;;;8.70;99.90;;;;;;5067757;28;20123;-65
2023/12/10 03:06:25;;;;;;;19.40;3.75;;;8.80;99.90;;;;;;5060743;28;20133;-65
2023/12/10 03:08:53;;;;;;;25.63;3.60;;;8.70;99.90;;;;;;5065672;28;20412;-65
2023/12/10 03:11:19;;;;;;;23.13;4.65;;;8.70;99.90;;;;;;5066589;28;20070;-65
2023/12/10 03:13:46;;;;;;;33.85;4.07;;;8.70;99.90;;;;;;5066981;28;20047;-65
2023/12/10 03:16:13;;;;;;;20.38;3.58;;;8.70;99.90;;;;;;5068028;28;20641;-65
2023/12/10 03:18:40;;;;;;;18.52;3.55;;;8.70;99.90;;;;;;5071089;28;20048;-65
2023/12/10 03:21:07;;;;;;;17.17;3.20;;;8.80;99.90;;;;;;5066828;28;20052;-65
2023/12/10 03:23:34;;;;;;;22.10;3.35;;;8.80;99.90;;;;;;5067557;28;20479;-65
2023/12/10 03:26:01;;;;;;;22.73;3.70;;;8.80;99.90;;;;;;5067574;28;20036;-65
2023/12/10 03:28:28;;;;;;;17.90;3.72;;;8.70;99.90;;;;;;5070529;28;20045;-65
2023/12/10 03:30:55;;;;;;;26.35;3.90;;;8.70;99.90;;;;;;5068781;28;20131;-65
2023/12/10 03:33:21;;;;;;;16.10;3.03;;;8.70;99.90;;;;;;5073380;28;20905;-65
2023/12/10 03:35:48;;;;;;;18.90;3.63;;;8.70;99.90;;;;;;5070327;28;20048;-64
2023/12/10 03:38:15;;;;;;;24.90;4.25;;;8.70;99.90;;;;;;5071174;28;20049;-64
2023/12/10 03:40:42;;;;;;;21.02;3.92;;;8.70;99.90;;;;;;5071469;28;20129;-65
2023/12/10 03:43:09;;;;;;;22.83;3.88;;;8.70;99.90;;;;;;5052997;28;20090;-66
2023/12/10 03:45:36;;;;;;;26.00;5.95;;;8.70;99.90;;;;;;5070530;28;20036;-64
2023/12/10 03:48:03;;;;;;;18.38;3.65;;;8.60;99.90;;;;;;5070490;28;20056;-64
2023/12/10 03:50:30;;;;;;;34.33;4.70;;;8.70;99.90;;;;;;5070003;28;20127;-64
2023/12/10 03:52:57;;;;;;;25.50;4.88;;;8.60;99.90;;;;;;5076615;28;20051;-65
2023/12/10 03:55:24;;;;;;;19.55;4.82;;;8.60;99.90;;;;;;5071415;28;20032;-64
2023/12/10 03:57:51;;;;;;;28.88;5.25;;;8.60;99.90;;;;;;5068046;28;20080;-64
2023/12/10 04:00:18;;;;;;;22.88;3.20;;;8.60;99.90;;;;;;5068781;28;20052;-66
2023/12/10 04:02:56;;;;;;;21.50;3.33;;;8.60;99.90;;;;;;5069462;28;20567;-65
2023/12/10 04:05:23;;;;;;;18.88;3.90;;;8.60;99.90;;;;;;5066547;28;20106;-64
2023/12/10 04:07:50;;;;;;;27.75;3.50;;;8.60;99.90;;;;;;5061167;28;20079;-64
2023/12/10 04:10:17;;;;;;;30.17;3.28;;;8.60;99.90;;;;;;5051521;28;20052;-65
2023/12/10 04:12:44;;;;;;;28.27;3.67;;;8.50;99.90;;;;;;5069763;28;20041;-65
2023/12/10 04:15:11;;;;;;;24.70;3.90;;;8.50;99.90;;;;;;5068704;28;20045;-66
2023/12/10 04:17:39;;;;;;;26.13;3.75;;;8.50;99.90;;;;;;5068563;28;20398;-65
2023/12/10 04:20:11;;;;;;;24.90;4.35;;;8.50;99.90;;;;;;5067301;28;20051;-64
2023/12/10 04:22:38;;;;;;;25.10;6.25;;;8.50;99.90;;;;;;5068580;28;20464;-66
2023/12/10 04:25:05;;;;;;;24.23;4.85;;;8.50;99.90;;;;;;5052858;28;20087;-65
2023/12/10 04:27:32;;;;;;;18.08;2.90;;;8.50;99.90;;;;;;5069888;28;20516;-65
2023/12/10 04:29:59;;;;;;;23.42;2.85;;;8.50;99.90;;;;;;5069756;28;20155;-65
2023/12/10 04:32:26;;;;;;;19.52;2.97;;;8.40;99.90;;;;;;5062799;28;20095;-64
2023/12/10 04:34:53;;;;;;;17.48;3.20;;;8.40;99.90;;;;;;5065678;28;20414;-64
2023/12/10 04:37:20;;;;;;;16.67;3.63;;;8.40;99.90;;;;;;5068307;28;20585;-65
2023/12/10 04:39:47;;;;;;;19.77;3.67;;;8.40;99.90;;;;;;5050763;28;20137;-64
2023/12/10 04:42:14;;;;;;;29.80;4.05;;;8.40;99.90;;;;;;5068313;28;20500;-65
2023/12/10 04:44:41;;;;;;;14.73;2.28;;;8.40;99.90;;;;;;5068871;28;20108;-64
2023/12/10 04:47:08;;;;;;;19.67;4.07;;;8.40;99.90;;;;;;5068408;28;20045;-64
2023/12/10 04:49:35;;;;;;;26.00;3.35;;;8.40;99.90;;;;;;5069582;28;20048;-65
2023/12/10 04:52:02;;;;;;;23.17;3.72;;;8.40;99.90;;;;;;5069151;28;20463;-63
2023/12/10 04:54:29;;;;;;;16.98;2.60;;;8.40;99.90;;;;;;5068645;28;20048;-64
2023/12/10 04:56:56;;;;;;;23.95;3.30;;;8.40;99.90;;;;;;5068585;28;20049;-64
2023/12/10 04:59:22;;;;;;;21.15;4.28;;;8.50;99.90;;;;;;5068777;28;20052;-64
2023/12/10 05:01:49;;;;;;;19.95;2.60;;;8.50;99.90;;;;;;5069246;28;20074;-65
2023/12/10 05:04:16;;;;;;;13.57;2.83;;;8.50;99.90;;;;;;5071539;28;20103;-65
2023/12/10 05:06:43;;;;;;;13.90;2.75;;;8.50;99.90;;;;;;5053771;28;20124;-64
2023/12/10 05:09:11;;;;;;;23.25;4.55;;;8.50;99.90;;;;;;5087758;28;20149;-64
2023/12/10 05:11:38;;;;;;;14.30;2.63;;;8.50;99.90;;;;;;5075348;28;20407;-64
2023/12/10 05:14:06;;;;;;;21.40;3.15;;;8.50;99.90;;;;;;5054353;28;20098;-64
2023/12/10 05:16:32;;;;;;;16.20;3.03;;;8.50;99.90;;;;;;5077320;28;20067;-65
2023/12/10 05:18:59;;;;;;;17.38;2.95;;;8.50;99.90;;;;;;5068677;28;20129;-64
2023/12/10 05:21:30;;;;;;;10.45;2.03;;;8.50;99.90;;;;;;5068375;28;20048;-64
2023/12/10 05:23:57;;;;;;;14.85;3.08;;;8.50;99.90;;;;;;5067860;28;20063;-64
2023/12/10 05:26:24;;;;;;;20.45;3.35;;;8.50;99.90;;;;;;5068478;28;20040;-65
2023/12/10 05:28:51;;;;;;;26.65;3.38;;;8.50;99.90;;;;;;5068043;28;20134;-66
2023/12/10 05:31:18;;;;;;;15.93;3.25;;;8.50;99.90;;;;;;5067988;28;20041;-65
2023/12/10 05:33:45;;;;;;;17.45;2.65;;;8.50;99.90;;;;;;5067119;28;20047;-64
2023/12/10 05:36:12;;;;;;;21.52;2.60;;;8.50;99.90;;;;;;5065167;28;20032;-64
2023/12/10 05:38:39;;;;;;;14.15;2.38;;;8.50;99.90;;;;;;5067344;28;20128;-66
2023/12/10 05:41:06;;;;;;;31.50;3.28;;;8.50;99.90;;;;;;5071819;28;20105;-65
2023/12/10 05:43:32;;;;;;;7.82;2.42;;;8.50;99.90;;;;;;5067281;28;20057;-64
2023/12/10 05:45:59;;;;;;;20.60;4.22;;;8.50;99.90;;;;;;5072231;28;20082;-64
2023/12/10 05:48:29;;;;;;;15.23;2.78;;;8.50;99.90;;;;;;5070173;28;20055;-65
2023/12/10 05:50:56;;;;;;;13.02;2.53;;;8.50;99.90;;;;;;5067889;28;20122;-65
2023/12/10 05:53:23;;;;;;;13.73;2.28;;;8.50;99.90;;;;;;5069445;28;20079;-64
2023/12/10 05:55:50;;;;;;;15.75;2.47;;;8.60;99.90;;;;;;5065653;28;20044;-64
2023/12/10 05:58:16;;;;;;;13.30;2.50;;;8.60;99.90;;;;;;5067399;28;20129;-64
2023/12/10 06:00:43;;;;;;;16.00;2.47;;;8.60;99.90;;;;;;5068216;28;20044;-64
2023/12/10 06:03:10;;;;;;;18.05;3.25;;;8.70;99.90;;;;;;5067370;28;20067;-64
2023/12/10 06:05:37;;;;;;;14.95;3.13;;;8.70;99.90;;;;;;5067481;28;20041;-64
2023/12/10 06:08:04;;;;;;;12.98;2.20;;;8.70;99.90;;;;;;5067109;28;20040;-65
2023/12/10 06:10:31;;;;;;;14.20;3.28;;;8.80;99.90;;;;;;5067506;28;20102;-64
2023/12/10 06:12:58;;;;;;;22.25;3.90;;;8.80;99.90;;;;;;5071510;28;20052;-64
2023/12/10 06:15:24;;;;;;;23.50;3.45;;;8.80;99.90;;;;;;5066467;28;20041;-64
2023/12/10 06:17:51;;;;;;;24.38;3.55;;;8.80;99.90;;;;;;5066868;28;20044;-64
2023/12/10 06:20:19;;;;;;;13.68;4.85;;;8.90;99.90;;;;;;5066671;28;20037;-65
2023/12/10 06:22:45;;;;;;;23.05;4.20;;;8.90;99.90;;;;;;5055155;28;20953;-64
2023/12/10 06:25:12;;;;;;;17.70;3.45;;;8.90;99.90;;;;;;5031581;28;20496;-65
2023/12/10 06:27:39;;;;;;;22.45;4.30;;;8.90;99.90;;;;;;5059996;28;20081;-65
2023/12/10 06:30:08;;;;;;;13.63;2.65;;;8.90;99.90;;;;;;5065634;28;20048;-64
2023/12/10 06:32:35;;;;;;;19.45;3.17;;;8.90;99.90;;;;;;5076603;28;20047;-64
2023/12/10 06:35:02;;;;;;;30.38;6.97;;;8.90;99.90;;;;;;5050412;28;20105;-64
2023/12/10 06:37:30;;;;;;;16.55;3.85;;;8.90;99.90;;;;;;5067797;28;20052;-64
2023/12/10 06:39:57;;;;;;;28.77;4.50;;;9.00;99.90;;;;;;5067540;28;20051;-65
2023/12/10 06:42:24;;;;;;;28.13;3.70;;;9.00;99.90;;;;;;5067156;28;20465;-64
2023/12/10 06:44:51;;;;;;;36.85;4.93;;;9.00;99.90;;;;;;5066380;28;20060;-65
2023/12/10 06:47:18;;;;;;;12.75;3.17;;;9.00;99.90;;;;;;5065469;28;20072;-64
2023/12/10 06:49:45;;;;;;;21.98;4.20;;;9.10;99.90;;;;;;5060759;28;20499;-64
2023/12/10 06:52:12;;;;;;;30.92;5.07;;;9.10;99.90;;;;;;5061568;28;20490;-67
2023/12/10 06:54:40;;;;;;;27.45;4.80;;;9.10;99.90;;;;;;5058647;28;20036;-65
2023/12/10 06:57:07;;;;;;;27.58;3.63;;;9.10;99.90;;;;;;5065257;28;20067;-64
2023/12/10 06:59:34;;;;;;;32.35;5.97;;;9.10;99.90;;;;;;5067488;28;20064;-64
2023/12/10 07:02:00;;;;;;;22.55;5.15;;;9.10;99.90;;;;;;5065758;28;20083;-64
2023/12/10 07:04:27;;;;;;;28.83;4.30;;;9.10;99.90;;;;;;5072245;28;20048;-65
2023/12/10 07:06:54;;;;;;;22.77;4.22;;;9.20;99.90;;;;;;5068654;28;20048;-64
2023/12/10 07:09:21;;;;;;;34.55;5.22;;;9.20;99.90;;;;;;5068287;28;20052;-64
2023/12/10 07:11:48;;;;;;;29.85;4.40;;;9.10;99.90;;;;;;5070266;28;20067;-64
2023/12/10 07:14:15;;;;;;;30.98;4.30;;;9.10;99.90;;;;;;5065199;28;20048;-65
2023/12/10 07:16:42;;;;;;;29.38;4.55;;;9.10;99.90;;;;;;5070752;28;20455;-63
2023/12/10 07:19:09;;;;;;;21.20;5.63;;;9.10;99.90;;;;;;5072406;28;20080;-64
2023/12/10 07:21:36;;;;;;;34.95;5.25;;;9.10;99.90;;;;;;5074153;28;20082;-64
2023/12/10 07:24:03;;;;;;;29.42;5.28;;;9.10;99.90;;;;;;5069490;28;20048;-64
2023/12/10 07:26:30;;;;;;;40.70;5.15;;;9.10;99.90;;;;;;5073119;28;20152;-64
2023/12/10 07:28:57;;;;;;;29.85;5.57;;;9.10;99.90;;;;;;5071878;28;20044;-64
2023/12/10 07:31:24;;;;;;;34.60;6.75;;;9.20;99.90;;;;;;5070946;28;20044;-65
2023/12/10 07:33:50;;;;;;;34.05;6.28;;;9.10;99.90;;;;;;5064957;28;20115;-65
2023/12/10 07:36:17;;;;;;;26.05;4.53;;;9.10;99.90;;;;;;5060310;28;20458;-64
2023/12/10 07:38:44;;;;;;;31.15;4.43;;;9.10;99.90;;;;;;5073580;28;20447;-65
2023/12/10 07:41:13;;;;;;;25.85;4.78;;;9.10;99.90;;;;;;5070496;28;20110;-65
2023/12/10 07:43:39;;;;;;;34.45;6.05;;;9.10;99.90;;;;;;5062875;28;20044;-64
2023/12/10 07:46:06;;;;;;;24.33;4.15;;;9.10;99.90;;;;;;5070097;28;20408;-64
2023/12/10 07:48:33;;;;;;;27.75;4.72;;;9.10;99.90;;;;;;5068747;28;20052;-64
2023/12/10 07:51:01;;;;;;;27.00;4.95;;;9.10;99.90;;;;;;5069960;28;20048;-64
2023/12/10 07:53:28;;;;;;;32.30;4.03;;;9.10;99.90;;;;;;5069177;28;20079;-64
2023/12/10 07:55:55;;;;;;;29.70;5.95;;;9.10;99.90;;;;;;5052498;28;20567;-64
2023/12/10 07:58:22;;;;;;;18.67;4.38;;;9.20;99.90;;;;;;5079356;28;20048;-64
2023/12/10 08:00:49;;;;;;;33.22;6.47;;;9.10;99.90;;;;;;5073552;28;20047;-64
2023/12/10 08:03:16;;;;;;;33.10;5.07;;;9.20;99.90;;;;;;5047742;28;20048;-65
2023/12/10 08:05:43;;;;;;;30.23;6.65;;;9.20;99.90;;;;;;5069044;28;20503;-64
2023/12/10 08:08:10;;;;;;;23.10;4.40;;;9.20;99.90;;;;;;5068793;28;20089;-65
2023/12/10 08:10:37;;;;;;;35.92;5.78;;;9.20;99.90;;;;;;5068837;28;20127;-64
2023/12/10 08:13:04;;;;;;;45.40;5.50;;;9.20;99.90;;;;;;5068586;28;20048;-64
2023/12/10 08:15:31;;;;;;;31.17;5.72;;;9.20;99.90;;;;;;5066486;28;20037;-65
2023/12/10 08:17:58;;;;;;;29.98;5.43;;;9.10;99.90;;;;;;5067690;28;20044;-64
2023/12/10 08:20:25;;;;;;;33.65;5.43;;;9.20;99.90;;;;;;5064947;28;20072;-64
2023/12/10 08:22:52;;;;;;;26.90;4.35;;;9.10;99.90;;;;;;5067418;28;20072;-65
2023/12/10 08:25:18;;;;;;;34.17;5.72;;;9.10;99.90;;;;;;5060435;28;20095;-65
2023/12/10 08:27:45;;;;;;;37.05;6.00;;;9.10;99.90;;;;;;5066735;28;20449;-64
2023/12/10 08:30:13;;;;;;;22.13;4.75;;;9.10;99.90;;;;;;5060372;28;20164;-65
2023/12/10 08:32:40;;;;;;;37.67;5.85;;;9.10;99.90;;;;;;5054092;28;20114;-65
2023/12/10 08:35:07;;;;;;;41.28;5.18;;;9.20;99.90;;;;;;5070949;28;20045;-65
2023/12/10 08:37:34;;;;;;;39.88;6.03;;;9.10;99.90;;;;;;5067192;28;20044;-65
2023/12/10 08:40:02;;;;;;;42.75;4.93;;;9.10;99.90;;;;;;5071013;28;20040;-65
2023/12/10 08:42:30;;;;;;;38.55;6.68;;;9.20;99.90;;;;;;5071631;28;20040;-65
2023/12/10 08:44:58;;;;;;;33.42;6.53;;;9.20;99.90;;;;;;5068293;28;20045;-64
2023/12/10 08:47:25;;;;;;;39.00;6.20;;;9.20;99.90;;;;;;5069291;28;20083;-65
2023/12/10 08:49:52;;;;;;;28.08;5.97;;;9.30;99.90;;;;;;5069399;28;20052;-64
2023/12/10 08:52:19;;;;;;;43.58;8.15;;;9.40;99.90;;;;;;5060458;28;20436;-62
2023/12/10 08:54:46;;;;;;;32.15;6.10;;;9.40;99.90;;;;;;5059149;28;20495;-62
2023/12/10 08:57:13;;;;;;;33.72;5.20;;;9.40;99.90;;;;;;5069006;28;20215;-62
2023/12/10 08:59:40;;;;;;;33.47;6.72;;;9.50;99.90;;;;;;5062768;28;20060;-61
2023/12/10 09:02:07;;;;;;;31.98;6.70;;;9.50;99.90;;;;;;5064768;28;20053;-62
2023/12/10 09:04:34;;;;;;;36.17;5.68;;;9.50;99.90;;;;;;5080212;28;20510;-62
2023/12/10 09:07:01;;;;;;;34.25;6.10;;;9.60;99.90;;;;;;5064841;28;20044;-63
2023/12/10 09:09:28;;;;;;;39.95;5.80;;;9.60;99.90;;;;;;5083364;28;20175;-62
2023/12/10 09:11:55;;;;;;;35.15;6.20;;;9.60;99.90;;;;;;5067952;28;20132;-63
2023/12/10 09:14:22;;;;;;;29.58;7.07;;;9.60;99.90;;;;;;5067142;28;20048;-62
2023/12/10 09:16:49;;;;;;;36.70;6.30;;;9.70;99.90;;;;;;5066470;28;20045;-63
2023/12/10 09:19:17;;;;;;;43.22;7.15;;;9.70;99.90;;;;;;5060691;28;20102;-61
2023/12/10 09:21:45;;;;;;;35.97;5.85;;;9.80;99.90;;;;;;5067037;28;20071;-61
2023/12/10 09:24:11;;;;;;;29.42;6.60;;;9.80;99.90;;;;;;5065557;28;20107;-62
2023/12/10 09:26:39;;;;;;;40.60;8.13;;;9.90;99.90;;;;;;5063566;28;20512;-63
2023/12/10 09:29:05;;;;;;;36.13;5.15;;;9.90;99.90;;;;;;5049542;28;20052;-63
2023/12/10 09:31:32;;;;;;;40.65;6.47;;;10.00;99.90;;;;;;5065545;28;20098;-63
2023/12/10 09:33:59;;;;;;;39.65;7.43;;;10.00;99.90;;;;;;5063359;28;20681;-61
2023/12/10 09:36:26;;;;;;;33.40;6.07;;;10.10;99.90;;;;;;5065365;28;20106;-62
2023/12/10 09:38:53;;;;;;;48.55;5.90;;;10.10;99.90;;;;;;5071861;28;20060;-63
2023/12/10 09:41:20;;;;;;;36.08;6.88;;;10.20;99.90;;;;;;5065437;28;20040;-62
2023/12/10 09:43:47;;;;;;;59.40;5.78;;;10.20;99.90;;;;;;5076494;28;20117;-63
2023/12/10 09:46:14;;;;;;;46.05;6.50;;;10.20;99.90;;;;;;5067700;28;20048;-62
2023/12/10 09:48:41;;;;;;;48.00;6.60;;;10.30;99.90;;;;;;5058428;28;20056;-62
2023/12/10 09:51:08;;;;;;;41.60;6.18;;;10.30;99.90;;;;;;5048090;28;20109;-64
2023/12/10 09:53:35;;;;;;;44.75;6.57;;;10.40;99.90;;;;;;5066852;28;20060;-63
2023/12/10 09:56:02;;;;;;;61.72;7.57;;;10.40;99.90;;;;;;5065646;28;20499;-62
2023/12/10 09:58:29;;;;;;;46.10;7.22;;;10.40;99.90;;;;;;5067156;28;20110;-62
2023/12/10 10:00:56;;;;;;;38.20;7.43;;;10.40;99.90;;;;;;5067163;28;20052;-62
2023/12/10 10:03:25;;;;;;;29.40;5.75;;;10.50;99.90;;;;;;5049206;28;20053;-62
2023/12/10 10:05:54;;;;;;;41.40;6.95;;;10.50;99.90;;;;;;5061754;28;20045;-63
2023/12/10 10:08:21;;;;;;;33.03;6.80;;;10.60;99.90;;;;;;5065248;28;20484;-63
2023/12/10 10:10:48;;;;;;;46.47;6.20;;;10.60;99.90;;;;;;5048700;28;20468;-63
2023/12/10 10:13:15;;;;;;;32.08;7.30;;;10.60;99.90;;;;;;5081617;28;20129;-63
2023/12/10 10:15:42;;;;;;;40.05;6.85;;;10.60;99.90;;;;;;5066999;28;20463;-63
2023/12/10 10:18:10;;;;;;;50.38;7.22;;;10.70;99.90;;;;;;4712946;28;10000232;-63
2023/12/10 10:20:38;;;;;;;45.38;6.00;;;10.70;99.90;;;;;;5064149;28;20051;-62
2023/12/10 10:23:05;;;;;;;37.33;7.78;;;10.70;99.90;;;;;;5046059;28;20048;-62
2023/12/10 10:25:32;;;;;;;32.53;5.32;;;10.80;99.90;;;;;;5064381;28;20044;-62
2023/12/10 10:27:59;;;;;;;35.60;5.82;;;10.80;99.90;;;;;;5064185;28;20045;-63
2023/12/10 10:30:26;;;;;;;36.80;5.78;;;10.80;99.90;;;;;;5063575;28;20059;-63
2023/12/10 10:32:55;;;;;;;22.15;4.28;;;10.80;99.90;;;;;;5064693;28;20084;-62
2023/12/10 10:35:22;;;;;;;29.33;5.70;;;10.80;99.90;;;;;;5078188;28;20052;-62
2023/12/10 10:37:49;;;;;;;37.97;6.85;;;10.80;99.90;;;;;;5042315;28;20198;-62
2023/12/10 10:40:16;;;;;;;37.45;6.70;;;10.80;99.90;;;;;;5060949;28;20044;-62
2023/12/10 10:42:44;;;;;;;40.08;6.20;;;10.80;99.90;;;;;;5062759;28;20048;-62
2023/12/10 10:45:11;;;;;;;24.48;4.22;;;10.90;99.90;;;;;;5063731;28;20269;-60
2023/12/10 10:47:38;;;;;;;44.00;6.47;;;10.80;99.90;;;;;;5064023;28;20044;-63
2023/12/10 10:50:06;;;;;;;32.80;5.55;;;10.90;99.90;;;;;;5079174;28;20041;-63
2023/12/10 10:52:50;;;;;;;39.95;6.47;;;10.90;99.90;;;;;;5066102;28;20061;-63
2023/12/10 10:55:17;;;;;;;35.22;5.45;;;10.90;99.90;;;;;;5048233;28;20052;-63
2023/12/10 10:57:45;;;;;;;28.92;4.10;;;10.90;99.90;;;;;;5058908;28;20102;-63
2023/12/10 11:00:17;;;;;;;28.77;4.32;;;10.70;99.90;;;;;;5062568;28;20431;-63
2023/12/10 11:02:52;;;;;;;25.10;4.65;;;10.70;99.90;;;;;;5063669;28;20515;-63
2023/12/10 11:05:39;;;;;;;;;;;10.60;99.90;;;;;;5039171;28;20134;-62
2023/12/10 11:08:08;;;;;;;34.85;5.78;;;10.50;99.90;;;;;;5059735;28;20337;-63
2023/12/10 11:10:35;;;;;;;35.38;5.85;;;10.40;99.90;;;;;;5044032;28;20036;-63
2023/12/10 11:13:02;;;;;;;48.28;7.32;;;10.40;99.90;;;;;;5043148;28;20052;-62
2023/12/10 11:15:29;;;;;;;28.40;6.15;;;10.40;99.90;;;;;;5056206;28;20048;-63
2023/12/10 11:17:58;;;;;;;44.67;5.22;;;10.40;99.90;;;;;;5052548;28;20044;-61
2023/12/10 11:20:32;;;;;;;21.10;4.93;;;10.30;99.90;;;;;;5056433;28;20045;-63
2023/12/10 11:23:00;;;;;;;29.17;4.97;;;10.30;99.90;;;;;;5053944;28;20423;-61
2023/12/10 11:25:28;;;;;;;30.27;6.47;;;10.30;99.90;;;;;;5059950;28;20086;-61
2023/12/10 11:27:59;;;;;;;46.80;5.57;;;10.30;99.90;;;;;;5042817;28;20048;-61
2023/12/10 11:30:27;;;;;;;29.13;4.88;;;10.30;99.90;;;;;;5046033;28;20041;-61
2023/12/10 11:32:54;;;;;;;29.95;4.97;;;10.30;99.90;;;;;;5054785;28;20052;-62
2023/12/10 11:35:22;;;;;;;40.78;5.88;;;10.30;99.90;;;;;;5060050;28;20143;-61
2023/12/10 11:37:48;;;;;;;33.65;5.60;;;10.30;99.90;;;;;;5059113;28;20105;-62
2023/12/10 11:40:16;;;;;;;40.65;6.45;;;10.30;99.90;;;;;;5057124;28;20075;-63
2023/12/10 11:42:43;;;;;;;28.92;5.35;;;10.30;99.90;;;;;;5044527;28;20071;-62
2023/12/10 11:45:13;;;;;;;40.55;7.57;;;10.30;99.90;;;;;;5060856;28;20052;-62
2023/12/10 11:47:43;;;;;;;34.85;5.85;;;10.30;99.90;;;;;;5071257;28;20052;-62
2023/12/10 11:50:14;;;;;;;41.38;5.28;;;10.30;99.90;;;;;;5068543;28;20052;-62
2023/12/10 11:52:41;;;;;;;34.67;6.97;;;10.30;99.90;;;;;;5063290;28;20045;-62
2023/12/10 11:55:08;;;;;;;37.88;5.80;;;10.30;99.90;;;;;;5063134;28;20808;-62
2023/12/10 11:57:42;;;;;;;31.52;4.85;;;10.30;99.90;;;;;;5042844;28;20045;-61
2023/12/10 12:00:13;;;;;;;35.13;5.97;;;10.30;99.90;;;;;;5064305;28;20056;-61
2023/12/10 12:02:46;;;;;;;36.75;5.57;;;10.30;99.90;;;;;;5066826;28;20057;-61
2023/12/10 12:05:15;;;;;;;36.53;4.97;;;10.20;99.90;;;;;;5064604;28;20049;-61
2023/12/10 12:07:43;;;;;;;31.23;5.22;;;10.20;99.90;;;;;;5061165;28;20052;-61
2023/12/10 12:10:15;;;;;;;34.38;5.65;;;10.20;99.90;;;;;;5043816;28;20056;-61
2023/12/10 12:12:43;;;;;;;37.35;5.50;;;10.20;99.90;;;;;;5059084;28;20092;-61
2023/12/10 12:15:10;;;;;;;24.65;4.07;;;10.20;99.90;;;;;;5064519;28;20056;-62
2023/12/10 12:17:38;;;;;;;42.88;6.13;;;10.20;99.90;;;;;;5056831;28;20040;-61
2023/12/10 12:20:18;;;;;;;25.98;6.07;;;10.20;99.90;;;;;;5051107;28;20285;-62
2023/12/10 12:22:45;;;;;;;26.10;4.57;;;10.20;99.90;;;;;;5056076;28;20053;-62
2023/12/10 12:25:17;;;;;;;28.02;5.13;;;10.20;99.90;;;;;;5059628;28;20231;-62
2023/12/10 12:27:45;;;;;;;23.58;4.60;;;10.10;99.90;;;;;;5045412;28;20101;-62
2023/12/10 12:30:12;;;;;;;23.88;4.18;;;10.10;99.90;;;;;;5044350;28;20045;-62
2023/12/10 12:32:39;;;;;;;22.30;4.78;;;10.10;99.90;;;;;;5045073;28;20049;-62
2023/12/10 12:35:07;;;;;;;15.88;3.15;;;10.00;99.90;;;;;;5057511;28;20063;-62
2023/12/10 12:37:33;;;;;;;25.23;4.28;;;10.00;99.90;;;;;;5061117;28;20492;-62
2023/12/10 12:40:01;;;;;;;15.82;2.97;;;10.00;99.90;;;;;;5061454;28;20052;-62
2023/12/10 12:42:30;;;;;;;21.77;3.45;;;10.00;99.90;;;;;;5061760;28;20049;-62
2023/12/10 12:44:58;;;;;;;27.00;3.95;;;10.00;99.90;;;;;;5058602;28;20179;-62
2023/12/10 12:47:24;;;;;;;19.00;4.10;;;10.00;99.90;;;;;;5061392;28;20051;-61